Latest Weather Observations for Larapuna (Eddystone Point)

IDT60801

Issued at 6:01 am EDT Tuesday 3 March 2015 (issued every 30 minutes, with the page automatically refreshed every 10 minutes)

About weather observations | Map of weather stations | Latest weather observations for TAS | Other Formats
Station Details ID: 092045 Name: LARAPUNA (EDDYSTONE POINT) Lat: -40.99 Lon: 148.35 Height: 19.7 m
Data from the previous 72 hours. | See also: Recent months at Larapuna (Eddystone Point)
Date/Time
EDT
Temp
°C
App
Temp
°C
Dew
Point
Rel
Hum
%
Delta-T
°C
Wind Press
QNH
hPa
Press
MSL
hPa
Rain
since 9 am
mm
Dir
 
Spd
km/h
Gust
km/h
Spd
kts
Gust
kts
03/05:30am 12.2 10.2 8.5 78 1.8 W 9 13 5 7 1013.1 1013.1 0.2
03/05:00am 12.6 9.5 8.7 77 1.9 WNW 15 17 8 9 1012.7 1012.7 0.2
03/04:30am 13.1 10.0 9.0 76 2.1 WNW 15 19 8 10 1012.8 1012.8 0.2
03/04:00am 13.6 10.2 9.1 74 2.3 NW 17 22 9 12 1012.7 1012.7 0.2
03/03:30am 13.6 10.7 9.6 77 2.0 WNW 15 19 8 10 1012.7 1012.7 0.2
03/03:00am 13.8 10.5 10.8 82 1.6 NW 19 24 10 13 1012.9 1012.9 0.2
03/02:30am 14.0 10.7 10.8 81 1.7 NW 19 22 10 12 1013.3 1013.3 0.2
03/02:00am 14.2 11.2 10.6 79 1.9 WNW 17 20 9 11 1013.6 1013.6 0.2
03/01:30am 14.4 11.8 10.6 78 2.0 WNW 15 20 8 11 1014.2 1014.2 0.2
03/01:00am 14.4 11.1 10.8 79 1.9 WNW 19 22 10 12 1014.3 1014.3 0.2
03/12:30am 14.1 11.1 10.5 79 1.9 W 17 20 9 11 1014.6 1014.6 0.2
03/12:00am 14.6 11.6 10.8 78 2.0 WNW 17 22 9 12 1014.6 1014.6 0.2
 
Date/Time
EDT
Temp
°C
App
Temp
°C
Dew
Point
Rel
Hum
%
Delta-T
°C
Wind Press
QNH
hPa
Press
MSL
hPa
Rain
since 9 am
mm
Dir
 
Spd
km/h
Gust
km/h
Spd
kts
Gust
kts
02/11:30pm 14.5 12.3 10.7 78 2.0 WNW 13 19 7 10 1014.8 1014.8 0.2
02/11:00pm 14.7 11.3 10.7 77 2.1 WNW 19 26 10 14 1014.9 1014.9 0.2
02/10:30pm 14.7 11.3 10.7 77 2.1 WNW 19 26 10 14 1014.9 1014.9 0.2
02/10:00pm 14.8 11.5 10.8 77 2.1 NW 19 24 10 13 1014.7 1014.7 0.2
02/09:30pm 14.9 11.3 10.7 76 2.2 WNW 20 28 11 15 1014.9 1014.9 0.2
02/09:00pm 15.1 11.9 11.1 77 2.1 NW 19 26 10 14 1014.8 1014.8 0.2
02/08:30pm 15.6 12.4 11.4 76 2.3 NNW 19 24 10 13 1014.5 1014.5 0.2
02/08:00pm 15.8 12.3 11.0 73 2.6 NW 20 30 11 16 - - 0.2
02/07:30pm 16.1 12.8 10.8 71 2.8 NW 19 24 10 13 1014.6 1014.6 0.2
02/07:00pm 16.5 13.0 10.8 69 3.0 NW 20 26 11 14 1014.4 1014.4 0.2
02/06:30pm 16.7 13.3 10.5 67 3.3 NW 19 30 10 16 1014.6 1014.6 0.2
02/05:30pm 18.0 14.6 11.3 65 3.6 NW 20 24 11 13 1014.0 1014.0 0.2
02/05:00pm 18.3 14.5 12.5 69 3.2 NNW 24 32 13 17 1014.3 1014.3 0.2
02/04:30pm 18.4 14.1 13.3 72 2.9 N 28 33 15 18 1014.5 1014.5 0.2
02/04:00pm 18.7 13.7 13.3 71 3.1 N 32 37 17 20 1014.8 1014.8 0.2
02/03:30pm 18.8 15.0 12.3 66 3.6 N 24 30 13 16 1015.3 1015.3 0.2
02/03:00pm 19.9 17.3 13.1 65 3.9 N 19 22 10 12 1015.7 1015.7 0.2
02/02:30pm 19.9 17.3 13.8 68 3.5 N 20 26 11 14 1016.2 1016.2 0.2
02/02:00pm 19.7 17.3 14.3 71 3.1 N 20 24 11 13 1016.4 1016.4 0.2
02/01:30pm 19.1 16.9 14.8 76 2.5 NNE 20 26 11 14 1016.8 1016.8 0.2
02/01:00pm 18.3 15.4 14.0 76 2.5 NNE 22 28 12 15 1017.4 1017.4 0.2
02/12:30pm 19.2 16.8 14.5 74 2.7 NE 20 26 11 14 1018.0 1018.0 0.2
02/12:00pm 17.8 15.2 13.7 77 2.3 NNE 20 26 11 14 1018.6 1018.6 0.2
02/11:30am 19.2 15.8 13.6 70 3.2 NE 24 30 13 16 1018.6 1018.6 0.2
02/11:00am 18.1 14.7 13.8 76 2.4 NE 24 30 13 16 1018.8 1018.8 0.2
02/10:30am 18.5 16.0 14.0 75 2.6 NE 20 24 11 13 1019.0 1019.0 0.0
02/10:00am 17.7 15.6 13.6 77 2.3 NE 17 20 9 11 1019.1 1019.1 0.0
02/09:30am 15.7 13.8 13.0 84 1.5 ENE 15 17 8 9 1019.2 1019.2 0.0
02/09:00am 15.2 12.9 12.9 86 1.3 NE 17 20 9 11 1019.3 1019.3 1.0
02/08:30am 14.9 12.1 13.1 89 1.0 ENE 20 28 11 15 1018.9 1018.9 1.0
02/08:00am 14.6 12.1 12.3 86 1.2 ENE 17 24 9 13 1019.0 1019.0 1.0
02/07:30am 14.9 12.7 12.0 83 1.6 ESE 15 20 8 11 1018.6 1018.6 0.8
02/07:00am 14.8 12.1 11.8 82 1.6 ESE 17 22 9 12 1018.2 1018.2 0.8
02/06:30am 14.8 12.1 11.8 82 1.6 ESE 17 20 9 11 1018.2 1018.2 0.8
02/05:30am 14.5 12.3 12.0 85 1.4 SE 15 20 8 11 1018.2 1018.2 0.8
02/05:00am 14.4 11.8 11.9 85 1.3 ESE 17 20 9 11 1018.2 1018.2 0.8
02/04:30am 14.4 12.6 12.1 86 1.2 E 13 17 7 9 1018.2 1018.2 0.8
02/04:00am 14.9 12.6 11.9 82 1.6 E 15 17 8 9 1017.7 1017.7 0.8
02/03:30am 15.3 12.2 11.5 78 2.0 E 19 24 10 13 1017.3 1017.3 0.6
02/03:00am 15.2 12.5 11.6 79 1.9 ESE 17 20 9 11 1017.3 1017.3 0.6
02/02:30am 14.9 12.3 12.0 83 1.6 ESE 17 20 9 11 1017.0 1017.0 0.6
02/02:00am 15.7 12.6 11.5 76 2.3 ESE 19 26 10 14 1017.0 1017.0 0.4
02/01:30am 16.4 13.1 11.6 73 2.6 ESE 20 26 11 14 1017.0 1017.0 0.2
02/01:00am 16.2 12.1 11.6 74 2.5 ESE 24 32 13 17 1016.8 1016.8 0.2
02/12:30am 16.4 12.3 11.6 73 2.6 SE 24 32 13 17 1016.9 1016.9 0.2
02/12:00am 16.6 12.5 11.3 71 2.9 ESE 24 32 13 17 1016.8 1016.8 0.2
 
Date/Time
EDT
Temp
°C
App
Temp
°C
Dew
Point
Rel
Hum
%
Delta-T
°C
Wind Press
QNH
hPa
Press
MSL
hPa
Rain
since 9 am
mm
Dir
 
Spd
km/h
Gust
km/h
Spd
kts
Gust
kts
01/11:30pm 16.5 12.3 11.2 71 2.9 SE 24 33 13 18 1016.6 1016.6 0.2
01/11:00pm 16.8 12.8 11.7 72 2.8 SE 24 32 13 17 1016.6 1016.6 0.2
01/10:30pm 16.8 12.7 11.5 71 2.9 SE 24 32 13 17 1016.5 1016.5 0.2
01/10:00pm 16.9 13.2 11.6 71 2.9 SE 22 30 12 16 1016.2 1016.2 0.2
01/09:30pm 16.8 13.4 10.6 67 3.3 SE 19 26 10 14 1015.8 1015.8 0.2
01/09:00pm 16.9 13.5 10.7 67 3.3 SE 19 24 10 13 1015.5 1015.5 0.2
01/08:30pm 16.8 13.5 10.9 68 3.2 SE 19 22 10 12 1014.8 1014.8 0.2
01/08:00pm 16.7 13.7 10.5 67 3.3 SE 17 22 9 12 1014.4 1014.4 0.2
01/07:30pm 17.0 14.0 10.6 66 3.4 ESE 17 22 9 12 1013.7 1013.7 0.2
01/07:00pm 17.5 14.4 10.4 63 3.8 SE 17 22 9 12 1013.4 1013.4 0.2
01/06:30pm 18.2 15.4 11.3 64 3.8 SE 17 24 9 13 1012.9 1012.9 0.2
01/06:00pm 17.9 14.6 11.0 64 3.7 ESE 19 24 10 13 1012.5 1012.5 0.2
01/05:30pm 18.2 15.9 10.3 60 4.2 ESE 13 19 7 10 1011.8 1011.8 0.2
01/05:00pm 19.5 16.3 11.3 59 4.5 ESE 19 20 10 11 1011.4 1011.4 0.2
01/04:30pm 19.4 16.4 12.7 65 3.8 ESE 20 26 11 14 1010.9 1010.9 0.2
01/04:00pm 17.5 14.9 12.0 70 3.0 E 17 26 9 14 1010.4 1010.4 0.2
01/03:30pm 19.4 16.7 12.9 66 3.7 E 19 24 10 13 1010.0 1010.0 0.2
01/03:00pm 19.6 16.4 11.1 58 4.7 ENE 19 20 10 11 1009.6 1009.6 0.0
01/02:30pm 21.7 19.2 9.6 46 6.5 E 13 19 7 10 1009.3 1009.3 0.0
01/02:00pm 20.0 17.5 6.4 41 6.8 ENE 9 11 5 6 1008.8 1008.8 0.0
01/01:30pm 21.7 20.3 10.8 50 6.0 NE 9 13 5 7 1008.5 1008.5 0.0
01/01:00pm 19.9 18.3 11.4 58 4.7 NE 11 15 6 8 1008.2 1008.2 0.0
01/12:30pm 21.4 19.6 10.9 51 5.8 ESE 11 15 6 8 1007.9 1007.9 0.0
01/12:00pm 21.9 20.3 11.6 52 5.8 SE 11 15 6 8 1007.6 1007.6 0.0
01/11:30am 20.9 19.7 11.5 55 5.2 E 9 13 5 7 1007.3 1007.3 0.0
01/11:00am 20.5 20.0 12.7 61 4.4 E 7 11 4 6 1007.0 1007.0 0.0
01/10:30am 19.4 19.2 12.9 66 3.7 S 6 9 3 5 1006.4 1006.4 0.0
01/10:00am 18.9 18.7 13.7 72 3.0 SSW 7 9 4 5 1005.8 1005.7 0.0
01/09:30am 17.6 17.1 13.7 78 2.2 WNW 9 15 5 8 1005.2 1005.1 0.0
01/09:00am 16.9 15.8 14.4 85 1.4 W 13 17 7 9 1004.6 1004.5 14.4
01/08:30am 15.5 13.4 13.7 89 1.0 W 17 22 9 12 1003.8 1003.7 14.4
01/08:00am 14.2 10.9 12.9 92 0.7 W 22 30 12 16 1003.3 1003.2 14.4
01/07:30am 13.6 10.6 12.5 93 0.6 W 20 30 11 16 1002.6 1002.5 14.4
01/07:00am 13.8 11.1 12.9 94 0.5 WNW 19 26 10 14 1002.0 1001.9 14.4
01/06:30am 14.3 11.2 13.5 95 0.4 WNW 22 28 12 15 1001.1 1001.0 14.4
01/06:00am 14.6 12.1 13.6 94 0.6 WNW 19 24 10 13 1001.1 1001.0 14.4
01/05:30am 14.9 12.5 13.9 94 0.6 WNW 19 24 10 13 1000.6 1000.5 14.4
01/05:00am 15.2 13.3 14.2 94 0.6 NW 17 20 9 11 1000.5 1000.4 14.2
01/04:30am 15.1 13.1 13.8 92 0.7 NW 17 22 9 12 1000.3 1000.2 14.2
01/04:00am 14.8 11.7 13.3 91 0.8 NW 22 33 12 18 1000.5 1000.4 14.2
01/03:30am 15.2 11.7 13.4 89 1.0 NW 24 37 13 20 1001.0 1000.9 13.4
01/03:00am 16.2 13.2 14.9 92 0.8 W 24 37 13 20 1000.9 1000.8 13.0
01/02:49am 16.6 14.0 15.8 95 0.5 W 24 46 13 25 1000.9 1000.8 12.8
01/02:30am 17.6 15.4 17.0 96 0.4 NNW 24 33 13 18 1000.9 1000.8 10.4
01/02:00am 17.3 14.9 16.5 95 0.5 NNW 24 37 13 20 1001.0 1000.9 9.8
01/01:30am 17.4 14.2 16.4 94 0.6 NW 28 39 15 21 1001.6 1001.5 9.4
01/01:00am 17.5 14.4 16.5 94 0.6 NW 28 35 15 19 1001.6 1001.5 8.8
01/12:30am 17.7 14.7 16.7 94 0.6 NW 28 41 15 22 1002.1 1002.0 8.0
01/12:00am 18.1 15.2 17.1 94 0.6 NW 28 43 15 23 1002.6 1002.5 5.8
 
Date/Time
EDT
Temp
°C
App
Temp
°C
Dew
Point
Rel
Hum
%
Delta-T
°C
Wind Press
QNH
hPa
Press
MSL
hPa
Rain
since 9 am
mm
Dir
 
Spd
km/h
Gust
km/h
Spd
kts
Gust
kts
28/11:59pm 18.1 15.2 17.1 94 0.6 NNW 28 43 15 23 1002.6 1002.5 5.6
28/11:30pm 18.3 17.5 17.1 93 0.7 WNW 17 20 9 11 1002.8 1002.7 1.0
28/11:00pm 18.1 17.6 16.9 93 0.7 NW 15 20 8 11 1002.2 1002.1 0.8
28/10:30pm 18.3 18.1 16.8 91 0.9 WNW 13 24 7 13 1002.3 1002.2 0.8
28/10:00pm 18.3 19.2 16.6 90 1.0 WNW 7 9 4 5 1001.9 1001.8 0.0
28/09:30pm 18.3 18.5 16.8 91 0.9 NW 11 15 6 8 1001.9 1001.8 0.0
28/09:00pm 18.7 16.5 17.0 90 1.0 NNW 24 28 13 15 1001.4 1001.3 0.0
28/08:30pm 18.6 17.2 17.1 91 0.9 NNW 20 30 11 16 1001.3 1001.2 0.0
28/08:00pm 18.6 16.5 17.1 91 0.9 NNW 24 30 13 16 1001.4 1001.3 0.0
28/07:30pm 18.7 16.6 17.2 91 0.9 NNW 24 32 13 17 1001.5 1001.4 0.0
28/07:00pm 18.8 18.0 17.1 90 1.0 NNW 17 24 9 13 1001.7 1001.6 0.0
28/06:30pm 19.0 17.2 17.0 88 1.2 NNW 22 28 12 15 1001.7 1001.6 0.0
28/06:00pm 18.6 16.5 17.1 91 0.9 NNW 24 30 13 16 1002.3 1002.2 0.0
28/05:30pm 18.4 15.7 17.6 95 0.5 NNW 28 33 15 18 1002.5 1002.4 0.0
28/05:00pm 18.5 15.3 17.3 93 0.7 NNW 30 39 16 21 1002.7 1002.6 0.0
28/04:30pm 19.1 15.3 17.2 89 1.2 NNW 33 46 18 25 1002.9 1002.8 0.0
28/04:00pm 19.4 15.5 17.0 86 1.5 NNW 33 46 18 25 1003.2 1003.1 0.0
28/03:48pm 19.7 16.1 17.3 86 1.5 NNW 32 50 17 27 1003.4 1003.3 0.0
28/03:30pm 19.4 16.3 15.7 79 2.2 N 26 30 14 16 1003.5 1003.4 0.0
28/03:00pm 19.8 17.5 15.7 77 2.4 N 22 28 12 15 1004.0 1003.9 0.0
28/02:30pm 19.2 17.0 14.5 74 2.7 N 19 22 10 12 1004.3 1004.2 0.0
28/02:00pm 20.2 17.7 14.1 68 3.5 NNW 20 26 11 14 1004.5 1004.4 0.0
28/01:30pm 19.4 16.6 14.2 72 3.0 N 22 28 12 15 1004.7 1004.6 0.0
28/01:00pm 19.7 16.6 13.4 67 3.6 N 22 28 12 15 1005.1 1005.0 0.0
28/12:30pm 18.1 14.7 13.6 75 2.6 N 24 30 13 16 1005.4 1005.3 0.0
28/12:00pm 17.9 14.1 13.6 76 2.4 N 26 33 14 18 1005.9 1005.8 0.0
28/11:30am 19.2 15.8 13.8 71 3.1 N 24 30 13 16 1006.2 1006.1 0.0
28/11:00am 19.7 17.2 14.1 70 3.2 N 20 26 11 14 1006.4 1006.4 0.0
28/10:30am 19.3 18.1 14.1 72 3.0 N 13 17 7 9 1006.9 1006.9 0.0
28/10:00am 18.5 18.6 13.8 74 2.7 NW 6 11 3 6 1007.4 1007.4 0.0
28/09:30am 18.0 17.8 13.5 75 2.5 SSW 7 9 4 5 1007.0 1007.0 0.0
28/09:00am 17.0 16.5 13.7 81 1.9 SSW 9 11 5 6 1007.2 1007.2 0.0
28/08:30am 15.9 14.4 13.2 84 1.5 SSW 13 17 7 9 1007.1 1007.1 0.0
28/08:00am 15.3 13.7 12.8 85 1.4 SW 13 15 7 8 1007.5 1007.5 0.0
28/07:30am 14.9 13.2 12.6 86 1.3 SW 13 13 7 7 1007.3 1007.3 0.0
28/07:00am 15.7 14.2 13.2 85 1.4 S 13 15 7 8 1007.9 1007.9 0.0
28/06:30am 15.3 13.4 13.0 86 1.3 S 15 19 8 10 1007.9 1007.9 0.0

Other Formats:

Comma delimited format used in spreadsheet applications
http://www.bom.gov.au/fwo/IDT60801/IDT60801.94983.axf

JavaScript Object Notation format (JSON) in row-major order
http://www.bom.gov.au/fwo/IDT60801/IDT60801.94983.json